createdAt,value
2023-05-02T00:00:27.044Z,28.77
2023-05-02T00:01:27.092Z,28.75
2023-05-02T00:02:27.258Z,28.78
2023-05-02T00:03:27.198Z,28.79
2023-05-02T00:04:27.223Z,28.78
2023-05-02T00:05:27.271Z,28.75
2023-05-02T00:06:27.335Z,28.77
2023-05-02T00:07:27.327Z,28.74
2023-05-02T00:08:27.456Z,28.78
2023-05-02T00:09:27.423Z,28.77
2023-05-02T00:10:27.490Z,28.81
2023-05-02T00:11:27.508Z,28.74
2023-05-02T00:12:27.568Z,28.78
2023-05-02T00:13:27.586Z,28.74
2023-05-02T00:14:27.656Z,28.80
2023-05-02T00:15:27.696Z,28.77
2023-05-02T00:16:27.749Z,28.79
2023-05-02T00:17:27.845Z,28.78
2023-05-02T00:18:27.818Z,28.74
2023-05-02T00:19:27.893Z,28.75
2023-05-02T00:20:27.930Z,28.75
2023-05-02T00:21:27.972Z,28.77
2023-05-02T00:22:28.015Z,28.80
2023-05-02T00:23:28.088Z,28.78
2023-05-02T00:24:28.149Z,28.77
2023-05-02T00:25:28.143Z,28.74
2023-05-02T00:26:28.221Z,28.80
2023-05-02T00:27:28.236Z,28.75
2023-05-02T00:28:28.303Z,28.75
2023-05-02T00:29:28.361Z,28.74
2023-05-02T00:30:28.419Z,28.77
2023-05-02T00:31:28.597Z,28.75
2023-05-02T00:32:28.585Z,28.71
2023-05-02T00:33:28.539Z,28.78
2023-05-02T00:34:28.597Z,28.75
2023-05-02T00:35:28.634Z,28.77
2023-05-02T00:36:28.692Z,28.77
2023-05-02T00:37:28.756Z,28.78
2023-05-02T00:38:28.775Z,28.77
2023-05-02T00:39:28.860Z,28.78
2023-05-02T00:40:28.891Z,28.75
2023-05-02T00:41:28.945Z,28.75
2023-05-02T00:42:28.955Z,28.74
2023-05-02T00:43:29.009Z,28.72
2023-05-02T00:44:29.050Z,28.74
2023-05-02T00:45:29.133Z,28.74
2023-05-02T00:46:29.353Z,28.72
2023-05-02T00:47:29.244Z,28.75
2023-05-02T00:48:29.261Z,28.74
2023-05-02T00:49:29.317Z,28.77
2023-05-02T00:50:29.341Z,28.75
2023-05-02T00:51:29.381Z,28.77
2023-05-02T00:52:29.500Z,28.75
2023-05-02T00:53:29.499Z,28.74
2023-05-02T00:54:29.562Z,28.81
2023-05-02T00:55:29.591Z,28.77
2023-05-02T00:56:29.618Z,28.77
2023-05-02T00:57:29.695Z,28.80
2023-05-02T00:58:29.738Z,28.78
2023-05-02T00:59:29.783Z,28.78
2023-05-02T01:00:29.818Z,28.71
2023-05-02T01:01:29.981Z,28.74
2023-05-02T01:02:29.968Z,28.78
2023-05-02T01:03:30.068Z,28.77
2023-05-02T01:04:30.038Z,28.75
2023-05-02T01:05:30.065Z,28.75
2023-05-02T01:06:30.225Z,28.74
2023-05-02T01:07:30.168Z,28.75
2023-05-02T01:08:30.214Z,28.74
2023-05-02T01:09:30.259Z,28.78
2023-05-02T01:10:30.295Z,28.77
2023-05-02T01:11:30.377Z,28.75
2023-05-02T01:12:30.423Z,28.71
2023-05-02T01:13:30.460Z,28.72
2023-05-02T01:14:30.521Z,28.77
2023-05-02T01:15:30.568Z,28.75
2023-05-02T01:16:30.667Z,28.77
2023-05-02T01:17:30.676Z,28.81
2023-05-02T01:18:30.680Z,28.75
2023-05-02T01:19:30.737Z,28.75
2023-05-02T01:20:30.754Z,28.75
2023-05-02T01:21:30.810Z,28.74
2023-05-02T01:22:30.898Z,28.77
2023-05-02T01:23:30.925Z,28.77
2023-05-02T01:24:30.969Z,28.75
2023-05-02T01:25:31.021Z,28.75
2023-05-02T01:26:31.059Z,28.75
2023-05-02T01:27:31.119Z,28.78
2023-05-02T01:28:31.196Z,28.75
2023-05-02T01:29:31.157Z,28.78
2023-05-02T01:30:31.226Z,28.72
2023-05-02T01:31:31.359Z,28.77
2023-05-02T01:32:31.339Z,28.77
2023-05-02T01:33:31.379Z,28.72
2023-05-02T01:34:31.384Z,28.72
2023-05-02T01:35:31.486Z,28.77
2023-05-02T01:36:31.495Z,28.75
2023-05-02T01:37:31.542Z,28.77
2023-05-02T01:38:31.596Z,28.74
2023-05-02T01:39:31.670Z,28.78
2023-05-02T01:40:31.687Z,28.71
2023-05-02T01:41:31.716Z,28.75
2023-05-02T01:42:31.799Z,28.75
2023-05-02T01:43:31.827Z,28.75
2023-05-02T01:44:31.873Z,28.78
2023-05-02T01:45:31.924Z,28.75
2023-05-02T01:46:32.060Z,28.76
2023-05-02T01:47:32.020Z,28.77
2023-05-02T01:48:32.082Z,28.80
2023-05-02T01:49:32.084Z,28.75
2023-05-02T01:50:32.149Z,28.75
2023-05-02T01:51:32.192Z,28.75
2023-05-02T01:52:32.315Z,28.71
2023-05-02T01:53:32.291Z,28.74
2023-05-02T01:54:32.345Z,28.75
2023-05-02T01:55:32.386Z,28.79
2023-05-02T01:56:32.460Z,28.72
2023-05-02T01:57:32.502Z,28.72
2023-05-02T01:58:32.528Z,28.77
2023-05-02T01:59:32.565Z,28.72
2023-05-02T02:00:32.614Z,28.75
2023-05-02T02:01:32.741Z,28.75
2023-05-02T02:02:32.732Z,28.74
2023-05-02T02:03:32.800Z,28.70
2023-05-02T02:04:32.866Z,28.72
2023-05-02T02:05:32.836Z,28.71
2023-05-02T02:06:32.948Z,28.75
2023-05-02T02:07:32.928Z,28.72
2023-05-02T02:08:33.022Z,28.78
2023-05-02T02:09:33.048Z,28.77
2023-05-02T02:10:33.083Z,28.75
2023-05-02T02:11:33.124Z,28.74
2023-05-02T02:12:33.193Z,28.78
2023-05-02T02:13:33.244Z,28.81
2023-05-02T02:14:33.272Z,28.71
2023-05-02T02:15:33.314Z,28.71
2023-05-02T02:16:33.393Z,28.75
2023-05-02T02:17:33.444Z,28.75
2023-05-02T02:18:33.478Z,28.71
2023-05-02T02:19:33.526Z,28.77
2023-05-02T02:20:33.545Z,28.74
2023-05-02T02:21:33.573Z,28.74
2023-05-02T02:22:33.680Z,28.70
2023-05-02T02:23:33.707Z,28.70
2023-05-02T02:24:33.758Z,28.76
2023-05-02T02:25:33.812Z,28.72
2023-05-02T02:26:33.847Z,28.75
2023-05-02T02:27:33.862Z,28.72
2023-05-02T02:28:33.954Z,28.74
2023-05-02T02:29:33.990Z,28.74
2023-05-02T02:30:34.056Z,28.72
2023-05-02T02:31:34.382Z,28.74
2023-05-02T02:32:34.159Z,28.74
2023-05-02T02:33:34.152Z,28.75
2023-05-02T02:34:34.212Z,28.71
2023-05-02T02:35:34.262Z,28.72
2023-05-02T02:36:34.293Z,28.75
2023-05-02T02:37:34.353Z,28.75
2023-05-02T02:38:34.448Z,28.72
2023-05-02T02:39:34.455Z,28.67
2023-05-02T02:40:34.505Z,28.74
2023-05-02T02:41:34.526Z,28.72
2023-05-02T02:42:34.573Z,28.69
2023-05-02T02:43:34.649Z,28.72
2023-05-02T02:44:34.684Z,28.72
2023-05-02T02:45:34.738Z,28.77
2023-05-02T02:46:34.861Z,28.70
2023-05-02T02:47:34.899Z,28.72
2023-05-02T02:48:34.865Z,28.69
2023-05-02T02:49:34.910Z,28.76
2023-05-02T02:50:34.928Z,28.79
2023-05-02T02:51:34.977Z,28.74
2023-05-02T02:52:35.039Z,28.74
2023-05-02T02:53:35.092Z,28.72
2023-05-02T02:54:35.126Z,28.71
2023-05-02T02:55:35.186Z,28.75
2023-05-02T02:56:35.207Z,28.72
2023-05-02T02:57:35.259Z,28.75
2023-05-02T02:58:35.304Z,28.74
2023-05-02T02:59:35.364Z,28.73
2023-05-02T03:00:35.422Z,28.71
2023-05-02T03:01:35.514Z,28.70
2023-05-02T03:02:35.525Z,28.69
2023-05-02T03:03:35.657Z,28.75
2023-05-02T03:04:35.610Z,28.72
2023-05-02T03:05:35.649Z,28.75
2023-05-02T03:06:35.750Z,28.74
2023-05-02T03:07:35.775Z,28.72
2023-05-02T03:08:35.834Z,28.72
2023-05-02T03:09:35.894Z,28.72
2023-05-02T03:10:35.916Z,28.74
2023-05-02T03:11:35.969Z,28.75
2023-05-02T03:12:36.006Z,28.75
2023-05-02T03:13:36.058Z,28.74
2023-05-02T03:14:36.104Z,28.75
2023-05-02T03:15:36.217Z,28.71
2023-05-02T03:16:36.277Z,28.76
2023-05-02T03:17:36.340Z,28.74
2023-05-02T03:18:36.304Z,28.72
2023-05-02T03:19:36.346Z,28.74
2023-05-02T03:20:36.411Z,28.75
2023-05-02T03:21:36.467Z,28.76
2023-05-02T03:22:36.509Z,28.79
2023-05-02T03:23:36.555Z,28.74
2023-05-02T03:24:36.613Z,28.74
2023-05-02T03:25:36.619Z,28.78
2023-05-02T03:26:36.661Z,28.75
2023-05-02T03:27:36.688Z,28.75
2023-05-02T03:28:36.743Z,28.75
2023-05-02T03:29:36.829Z,28.76
2023-05-02T03:30:36.848Z,28.78
2023-05-02T03:31:36.890Z,28.73
2023-05-02T03:32:37.014Z,28.79
2023-05-02T03:33:36.980Z,28.75
2023-05-02T03:34:37.005Z,28.76
2023-05-02T03:35:37.054Z,28.76
2023-05-02T03:36:37.086Z,28.76
2023-05-02T03:37:37.144Z,28.78
2023-05-02T03:38:37.185Z,28.76
2023-05-02T03:39:37.262Z,28.81
2023-05-02T03:40:37.275Z,28.76
2023-05-02T03:41:37.338Z,28.80
2023-05-02T03:42:37.336Z,28.78
2023-05-02T03:43:37.397Z,28.82
2023-05-02T03:44:37.455Z,28.74
2023-05-02T03:45:37.516Z,28.81
2023-05-02T03:46:37.601Z,28.78
2023-05-02T03:47:37.697Z,28.79
2023-05-02T03:48:37.620Z,28.79
2023-05-02T03:49:37.704Z,28.79
2023-05-02T03:50:37.709Z,28.78
2023-05-02T03:51:37.747Z,28.72
2023-05-02T03:52:37.811Z,28.75
2023-05-02T03:53:37.852Z,28.74
2023-05-02T03:54:37.906Z,28.71
2023-05-02T03:55:37.933Z,28.67
2023-05-02T03:56:37.956Z,28.67
2023-05-02T03:57:37.992Z,28.69
2023-05-02T03:58:38.017Z,28.68
2023-05-02T03:59:38.060Z,28.66
2023-05-02T04:00:38.118Z,28.67
2023-05-02T04:01:38.187Z,28.66
2023-05-02T04:02:38.432Z,28.63
2023-05-02T04:03:38.286Z,28.65
2023-05-02T04:04:39.032Z,28.58
2023-05-02T04:05:38.261Z,28.55
2023-05-02T04:06:38.435Z,28.58
2023-05-02T04:07:38.323Z,28.58
2023-05-02T04:08:38.384Z,28.58
2023-05-02T04:09:38.365Z,28.58
2023-05-02T04:10:38.396Z,28.61
2023-05-02T04:11:38.420Z,28.52
2023-05-02T04:12:38.443Z,28.53
2023-05-02T04:13:38.523Z,28.49
2023-05-02T04:14:38.488Z,28.52
2023-05-02T04:15:38.518Z,28.49
2023-05-02T04:16:38.644Z,28.47
2023-05-02T04:17:38.681Z,28.49
2023-05-02T04:18:38.560Z,28.46
2023-05-02T04:19:38.566Z,28.45
2023-05-02T04:20:38.603Z,28.40
2023-05-02T04:21:38.598Z,28.41
2023-05-02T04:22:38.610Z,28.42
2023-05-02T04:23:38.620Z,28.39
2023-05-02T04:24:38.633Z,28.38
2023-05-02T04:25:38.624Z,28.38
2023-05-02T04:26:38.634Z,28.34
2023-05-02T04:27:38.671Z,28.35
2023-05-02T04:28:38.641Z,28.35
2023-05-02T04:29:38.668Z,28.39
2023-05-02T04:30:38.677Z,28.38
2023-05-02T04:31:38.698Z,28.35
2023-05-02T04:32:38.741Z,28.35
2023-05-02T04:33:38.677Z,28.37
2023-05-02T04:34:38.686Z,28.30
2023-05-02T04:35:38.691Z,28.28
2023-05-02T04:36:38.690Z,28.34
2023-05-02T04:37:38.684Z,28.31
2023-05-02T04:38:38.696Z,28.33
2023-05-02T04:39:38.730Z,28.29
2023-05-02T04:40:38.676Z,28.29
2023-05-02T04:41:38.698Z,28.29
2023-05-02T04:42:38.695Z,28.24
2023-05-02T04:43:38.683Z,28.27
2023-05-02T04:44:38.721Z,28.29
2023-05-02T04:45:38.725Z,28.22
2023-05-02T04:46:38.798Z,28.20
2023-05-02T04:47:38.732Z,28.23
2023-05-02T04:48:38.698Z,28.23
2023-05-02T04:49:38.693Z,28.22
2023-05-02T04:50:38.702Z,28.25
2023-05-02T04:51:38.716Z,28.23
2023-05-02T04:52:38.688Z,28.30
2023-05-02T04:53:38.699Z,28.20
2023-05-02T04:54:38.722Z,28.17
2023-05-02T04:55:38.692Z,28.24
2023-05-02T04:56:38.665Z,28.19
2023-05-02T04:57:38.696Z,28.20
2023-05-02T04:58:38.686Z,28.19
2023-05-02T04:59:38.720Z,28.18
2023-05-02T05:00:38.705Z,28.22
2023-05-02T05:01:45.827Z,28.15
2023-05-02T05:02:38.737Z,28.19
2023-05-02T05:03:38.781Z,28.20
2023-05-02T05:04:38.697Z,28.22
2023-05-02T05:05:38.728Z,28.19
2023-05-02T05:06:38.677Z,28.18
2023-05-02T05:07:38.651Z,28.20
2023-05-02T05:08:38.639Z,28.20
2023-05-02T05:09:38.654Z,28.19
2023-05-02T05:10:38.616Z,28.22
2023-05-02T05:11:38.619Z,28.19
2023-05-02T05:12:38.595Z,28.22
2023-05-02T05:13:38.604Z,28.19
2023-05-02T05:14:38.587Z,28.22
2023-05-02T05:15:38.575Z,28.16
2023-05-02T05:16:38.654Z,28.20
2023-05-02T05:17:38.595Z,28.19
2023-05-02T05:18:38.561Z,28.22
2023-05-02T05:19:38.595Z,28.22
2023-05-02T05:20:38.583Z,28.23
2023-05-02T05:21:38.521Z,28.18
2023-05-02T05:22:38.553Z,28.20
2023-05-02T05:23:38.554Z,28.22
2023-05-02T05:24:38.522Z,28.18
2023-05-02T05:25:38.560Z,28.14
2023-05-02T05:26:38.517Z,28.14
2023-05-02T05:27:38.542Z,28.12
2023-05-02T05:28:38.540Z,28.17
2023-05-02T05:29:38.571Z,28.15
2023-05-02T05:30:38.498Z,28.15
2023-05-02T05:31:38.513Z,28.11
2023-05-02T05:32:38.529Z,28.08
2023-05-02T05:33:38.570Z,28.10
2023-05-02T05:34:38.457Z,28.10
2023-05-02T05:35:38.476Z,28.32
2023-05-02T05:36:38.489Z,28.97
2023-05-02T05:37:38.457Z,29.42
2023-05-02T05:38:38.404Z,29.18
2023-05-02T05:39:38.593Z,29.47
2023-05-02T05:40:38.418Z,29.93
2023-05-02T05:41:38.434Z,30.07
2023-05-02T05:42:38.373Z,30.31
2023-05-02T05:43:38.552Z,32.00
2023-05-02T05:44:38.405Z,31.58
2023-05-02T05:45:38.364Z,33.22
2023-05-02T05:46:45.968Z,33.03
2023-05-02T05:47:38.401Z,32.97
2023-05-02T05:48:38.327Z,32.61
2023-05-02T05:49:39.030Z,32.68
2023-05-02T05:50:38.315Z,32.59
2023-05-02T05:51:38.329Z,32.58
2023-05-02T05:52:38.299Z,32.95
2023-05-02T05:53:38.384Z,32.49
2023-05-02T05:54:38.293Z,32.39
2023-05-02T05:55:39.112Z,32.34
2023-05-02T05:56:38.357Z,32.44
2023-05-02T05:57:38.396Z,32.36
2023-05-02T05:58:38.469Z,32.82
2023-05-02T05:59:38.417Z,32.25
2023-05-02T06:00:38.429Z,32.24
2023-05-02T06:01:38.430Z,32.28
2023-05-02T06:02:38.457Z,32.24
2023-05-02T06:03:38.511Z,35.80
2023-05-02T06:04:38.457Z,35.91
2023-05-02T06:05:38.409Z,34.65
2023-05-02T06:06:38.437Z,35.45
2023-05-02T06:07:38.412Z,34.87
2023-05-02T06:08:38.399Z,34.88
2023-05-02T06:09:38.377Z,35.34
2023-05-02T06:10:38.393Z,34.93
2023-05-02T06:11:38.413Z,33.62
2023-05-02T06:12:38.387Z,33.41
2023-05-02T06:13:38.405Z,33.28
2023-05-02T06:14:38.441Z,33.25
2023-05-02T06:15:38.583Z,33.20
2023-05-02T06:16:38.639Z,33.23
2023-05-02T06:17:38.551Z,33.12
2023-05-02T06:18:38.574Z,32.97
2023-05-02T06:19:38.658Z,33.03
2023-05-02T06:20:38.704Z,33.52
2023-05-02T06:21:38.725Z,33.19
2023-05-02T06:22:38.806Z,33.77
2023-05-02T06:23:38.847Z,33.40
2023-05-02T06:24:38.899Z,33.46
2023-05-02T06:25:38.941Z,33.94
2023-05-02T06:26:39.003Z,33.36
2023-05-02T06:27:39.035Z,33.49
2023-05-02T06:28:39.085Z,33.15
2023-05-02T06:29:39.157Z,33.21
2023-05-02T06:30:39.243Z,33.33
2023-05-02T06:31:39.317Z,33.40
2023-05-02T06:32:39.396Z,33.02
2023-05-02T06:33:39.419Z,33.18
2023-05-02T06:34:39.463Z,33.93
2023-05-02T06:35:39.536Z,33.89
2023-05-02T06:36:39.650Z,33.35
2023-05-02T06:37:39.603Z,33.58
2023-05-02T06:38:39.992Z,33.39
2023-05-02T06:39:39.762Z,33.19
2023-05-02T06:40:39.821Z,32.45
2023-05-02T06:41:39.855Z,32.93
2023-05-02T06:42:39.921Z,32.98
2023-05-02T06:43:39.967Z,32.85
2023-05-02T06:44:40.044Z,33.42
2023-05-02T06:45:40.089Z,33.06
2023-05-02T06:46:40.206Z,33.41
2023-05-02T06:47:40.314Z,33.24
2023-05-02T06:48:40.313Z,33.64
2023-05-02T06:49:40.314Z,33.73
2023-05-02T06:50:40.369Z,33.82
2023-05-02T06:51:40.414Z,33.66
2023-05-02T06:52:41.201Z,33.49
2023-05-02T06:53:40.529Z,33.54
2023-05-02T06:54:40.620Z,33.96
2023-05-02T06:55:41.095Z,33.90
2023-05-02T06:56:40.754Z,33.65
2023-05-02T06:57:40.744Z,33.70
2023-05-02T06:58:40.825Z,33.63
2023-05-02T06:59:41.547Z,33.70
2023-05-02T07:00:41.247Z,33.63
2023-05-02T07:01:41.044Z,33.56
2023-05-02T07:02:41.084Z,33.65
2023-05-02T07:03:41.160Z,33.88
2023-05-02T07:04:41.398Z,34.07
2023-05-02T07:05:41.589Z,34.49
2023-05-02T07:06:41.320Z,34.07
2023-05-02T07:07:41.318Z,33.85
2023-05-02T07:08:41.394Z,34.15
2023-05-02T07:09:41.449Z,33.94
2023-05-02T07:10:41.620Z,34.11
2023-05-02T07:11:41.523Z,34.46
2023-05-02T07:12:41.643Z,34.19
2023-05-02T07:13:41.795Z,34.43
2023-05-02T07:14:42.616Z,34.21
2023-05-02T07:15:41.751Z,34.12
2023-05-02T07:16:41.848Z,34.29
2023-05-02T07:17:41.891Z,34.50
2023-05-02T07:18:41.924Z,34.36
2023-05-02T07:19:44.615Z,34.45
2023-05-02T07:20:41.957Z,34.63
2023-05-02T07:21:41.912Z,34.87
2023-05-02T07:22:41.930Z,33.80
2023-05-02T07:23:41.962Z,34.27
2023-05-02T07:24:41.964Z,34.38
2023-05-02T07:25:41.908Z,34.28
2023-05-02T07:26:41.952Z,34.40
2023-05-02T07:27:41.952Z,34.44
2023-05-02T07:28:41.899Z,34.26
2023-05-02T07:29:41.864Z,35.02
2023-05-02T07:30:42.156Z,34.60
2023-05-02T07:31:41.981Z,32.93
2023-05-02T07:32:41.962Z,32.01
2023-05-02T07:33:41.839Z,30.69
2023-05-02T07:34:41.814Z,30.42
2023-05-02T07:35:42.113Z,30.09
2023-05-02T07:36:41.908Z,30.29
2023-05-02T07:37:41.849Z,30.35
2023-05-02T07:38:41.809Z,30.51
2023-05-02T07:39:41.800Z,30.24
2023-05-02T07:40:42.126Z,31.11
2023-05-02T07:41:41.825Z,31.15
2023-05-02T07:42:41.777Z,31.14
2023-05-02T07:43:43.549Z,31.00
2023-05-02T07:44:43.111Z,30.87
2023-05-02T07:45:43.260Z,30.80
2023-05-02T07:46:42.016Z,30.77
2023-05-02T07:47:42.074Z,31.22
2023-05-02T07:48:41.999Z,31.82
2023-05-02T07:49:42.055Z,31.18
2023-05-02T07:50:42.135Z,30.75
2023-05-02T07:51:42.120Z,30.89
2023-05-02T07:52:42.153Z,30.96
2023-05-02T07:53:42.208Z,30.80
2023-05-02T07:54:42.268Z,30.69
2023-05-02T07:55:42.609Z,30.81
2023-05-02T07:56:42.292Z,30.70
2023-05-02T07:57:42.344Z,30.44
2023-05-02T07:58:42.452Z,30.44
2023-05-02T07:59:42.452Z,30.33
2023-05-02T08:00:42.520Z,30.25
2023-05-02T08:01:42.570Z,30.84
2023-05-02T08:02:42.723Z,30.45
2023-05-02T08:03:42.790Z,30.27
2023-05-02T08:04:42.734Z,30.29
2023-05-02T08:05:42.761Z,30.64
2023-05-02T08:06:42.787Z,30.82
2023-05-02T08:07:42.894Z,30.32
2023-05-02T08:08:42.890Z,30.39
2023-05-02T08:09:42.965Z,30.52
2023-05-02T08:10:43.007Z,30.56
2023-05-02T08:11:43.015Z,30.53
2023-05-02T08:12:43.084Z,30.29
2023-05-02T08:13:43.111Z,30.19
2023-05-02T08:14:43.232Z,30.32
2023-05-02T08:15:43.328Z,30.33
2023-05-02T08:16:44.826Z,30.36
2023-05-02T08:17:43.569Z,30.40
2023-05-02T08:18:43.306Z,30.10
2023-05-02T08:19:43.301Z,30.42
2023-05-02T08:20:43.249Z,30.37
2023-05-02T08:21:43.241Z,30.37
2023-05-02T08:22:43.226Z,30.27
2023-05-02T08:23:43.255Z,30.44
2023-05-02T08:24:43.231Z,31.23
2023-05-02T08:25:43.369Z,30.86
2023-05-02T08:26:43.296Z,30.54
2023-05-02T08:27:43.302Z,30.54
2023-05-02T08:28:43.379Z,30.64
2023-05-02T08:29:43.520Z,31.86
2023-05-02T08:30:43.177Z,31.24
2023-05-02T08:31:43.445Z,31.67
2023-05-02T08:32:43.265Z,32.14
2023-05-02T08:33:43.281Z,32.06
2023-05-02T08:34:43.191Z,31.80
2023-05-02T08:35:43.678Z,31.67
2023-05-02T08:36:43.136Z,31.79
2023-05-02T08:37:43.156Z,31.91
2023-05-02T08:38:43.123Z,32.08
2023-05-02T08:39:43.141Z,32.24
2023-05-02T08:40:43.494Z,32.15
2023-05-02T08:41:43.152Z,32.14
2023-05-02T08:42:43.087Z,31.95
2023-05-02T08:43:43.121Z,32.30
2023-05-02T08:44:43.117Z,32.39
2023-05-02T08:45:43.111Z,32.40
2023-05-02T08:46:43.143Z,32.32
2023-05-02T08:47:43.155Z,32.54
2023-05-02T08:48:43.091Z,34.39
2023-05-02T08:49:43.072Z,35.18
2023-05-02T08:50:43.043Z,34.68
2023-05-02T08:51:43.050Z,34.09
2023-05-02T08:52:43.070Z,32.99
2023-05-02T08:53:43.080Z,32.65
2023-05-02T08:54:43.185Z,32.46
2023-05-02T08:55:43.598Z,31.07
2023-05-02T08:56:43.223Z,30.56
2023-05-02T08:57:43.011Z,30.37
2023-05-02T08:58:43.149Z,29.81
2023-05-02T08:59:43.120Z,30.60
2023-05-02T09:00:43.314Z,29.87
2023-05-02T09:01:43.399Z,29.70
2023-05-02T09:02:43.130Z,30.67
2023-05-02T09:03:42.925Z,30.45
2023-05-02T09:04:43.166Z,30.56
2023-05-02T09:05:42.946Z,30.57
2023-05-02T09:06:42.937Z,31.56
2023-05-02T09:07:42.924Z,31.24
2023-05-02T09:08:42.941Z,31.21
2023-05-02T09:09:42.926Z,30.98
2023-05-02T09:10:42.976Z,31.26
2023-05-02T09:11:43.164Z,31.21
2023-05-02T09:12:42.886Z,31.84
2023-05-02T09:13:42.884Z,31.37
2023-05-02T09:14:42.885Z,31.26
2023-05-02T09:15:42.885Z,31.12
2023-05-02T09:16:43.389Z,31.40
2023-05-02T09:17:42.905Z,30.93
2023-05-02T09:18:42.877Z,30.82
2023-05-02T09:19:42.862Z,31.03
2023-05-02T09:20:42.850Z,30.79
2023-05-02T09:21:42.831Z,30.89
2023-05-02T09:22:42.848Z,31.10
2023-05-02T09:23:42.833Z,31.25
2023-05-02T09:24:42.829Z,31.62
2023-05-02T09:25:42.869Z,31.82
2023-05-02T09:26:42.926Z,31.58
2023-05-02T09:27:42.977Z,31.10
2023-05-02T09:28:42.985Z,30.96
2023-05-02T09:29:43.044Z,31.00
2023-05-02T09:30:43.158Z,31.07
2023-05-02T09:31:55.456Z,30.86
2023-05-02T09:32:44.183Z,30.62
2023-05-02T09:33:43.111Z,30.57
2023-05-02T09:34:43.079Z,30.93
2023-05-02T09:35:43.086Z,30.66
2023-05-02T09:36:43.112Z,30.47
2023-05-02T09:37:43.063Z,30.22
2023-05-02T09:38:43.130Z,30.33
2023-05-02T09:39:43.076Z,30.51
2023-05-02T09:40:43.073Z,31.63
2023-05-02T09:41:43.082Z,32.13
2023-05-02T09:42:43.033Z,32.06
2023-05-02T09:43:43.034Z,32.26
2023-05-02T09:44:43.088Z,32.60
2023-05-02T09:45:43.220Z,33.50
2023-05-02T09:46:43.335Z,32.75
2023-05-02T09:47:43.753Z,33.14
2023-05-02T09:48:43.293Z,32.96
2023-05-02T09:49:43.352Z,33.04
2023-05-02T09:50:43.360Z,32.89
2023-05-02T09:51:43.416Z,32.95
2023-05-02T09:52:43.424Z,32.71
2023-05-02T09:53:43.466Z,32.60
2023-05-02T09:54:43.440Z,32.41
2023-05-02T09:55:43.480Z,32.20
2023-05-02T09:56:43.686Z,32.55
2023-05-02T09:57:43.482Z,32.00
2023-05-02T09:58:43.487Z,31.82
2023-05-02T09:59:43.508Z,31.69
2023-05-02T10:00:43.629Z,31.54
2023-05-02T10:01:43.619Z,31.47
2023-05-02T10:02:43.565Z,31.38
2023-05-02T10:03:43.756Z,31.37
2023-05-02T10:04:43.649Z,32.34
2023-05-02T10:05:43.598Z,31.44
2023-05-02T10:06:43.767Z,31.15
2023-05-02T10:07:43.612Z,31.17
2023-05-02T10:08:43.662Z,31.03
2023-05-02T10:09:43.703Z,30.86
2023-05-02T10:10:43.709Z,31.03
2023-05-02T10:11:43.695Z,31.02
2023-05-02T10:12:43.689Z,31.01
2023-05-02T10:13:43.682Z,31.19
2023-05-02T10:14:43.722Z,30.70
2023-05-02T10:15:43.781Z,30.60
2023-05-02T10:16:43.709Z,30.77
2023-05-02T10:17:43.788Z,30.67
2023-05-02T10:18:43.732Z,30.60
2023-05-02T10:19:43.747Z,30.46
2023-05-02T10:20:43.738Z,30.49
2023-05-02T10:21:44.204Z,30.53
2023-05-02T10:22:43.724Z,30.46
2023-05-02T10:23:43.727Z,30.59
2023-05-02T10:24:43.757Z,30.40
2023-05-02T10:25:43.740Z,30.69
2023-05-02T10:26:44.203Z,30.35
2023-05-02T10:27:43.671Z,30.32
2023-05-02T10:28:43.702Z,30.37
2023-05-02T10:29:43.702Z,30.04
2023-05-02T10:30:43.720Z,30.03
2023-05-02T10:31:44.868Z,29.93
2023-05-02T10:32:43.744Z,30.57
2023-05-02T10:33:43.662Z,31.07
2023-05-02T10:34:43.635Z,30.57
2023-05-02T10:35:43.703Z,30.29
2023-05-02T10:36:43.658Z,30.73
2023-05-02T10:37:43.653Z,31.00
2023-05-02T10:38:43.637Z,31.35
2023-05-02T10:39:43.675Z,31.14
2023-05-02T10:40:43.684Z,31.28
2023-05-02T10:41:43.679Z,31.24
2023-05-02T10:42:43.649Z,32.29
2023-05-02T10:43:43.656Z,30.91
2023-05-02T10:44:44.750Z,30.15
2023-05-02T10:45:43.682Z,29.45
2023-05-02T10:46:43.782Z,29.30
2023-05-02T10:47:43.795Z,29.30
2023-05-02T10:48:43.652Z,29.23
2023-05-02T10:49:43.625Z,29.00
2023-05-02T10:50:43.639Z,30.24
2023-05-02T10:51:44.645Z,29.00
2023-05-02T10:52:43.718Z,29.65
2023-05-02T10:53:43.716Z,29.30
2023-05-02T10:54:43.734Z,28.46
2023-05-02T10:55:43.772Z,28.53
2023-05-02T10:56:43.782Z,28.75
2023-05-02T10:57:44.074Z,28.38
2023-05-02T10:58:43.871Z,29.02
2023-05-02T10:59:43.890Z,29.06
2023-05-02T11:00:43.952Z,29.27
2023-05-02T11:01:44.428Z,29.02
2023-05-02T11:02:44.109Z,28.77
2023-05-02T11:03:44.092Z,28.67
2023-05-02T11:04:44.177Z,28.31
2023-05-02T11:05:44.151Z,28.39
2023-05-02T11:06:44.354Z,28.19
2023-05-02T11:07:44.259Z,27.67
2023-05-02T11:08:44.340Z,28.37
2023-05-02T11:09:44.378Z,27.64
2023-05-02T11:10:44.405Z,27.37
2023-05-02T11:11:44.458Z,27.70
2023-05-02T11:12:44.521Z,27.51
2023-05-02T11:13:44.567Z,27.73
2023-05-02T11:14:44.610Z,27.81
2023-05-02T11:15:44.664Z,27.74
2023-05-02T11:16:44.726Z,27.51
2023-05-02T11:17:44.750Z,27.41
2023-05-02T11:18:44.821Z,27.18
2023-05-02T11:19:44.860Z,27.27
2023-05-02T11:20:44.890Z,27.36
2023-05-02T11:21:44.956Z,27.44
2023-05-02T11:22:45.007Z,27.29
2023-05-02T11:23:45.045Z,27.19
2023-05-02T11:24:45.179Z,27.73
2023-05-02T11:25:45.170Z,26.76
2023-05-02T11:26:45.727Z,26.96
2023-05-02T11:27:45.386Z,27.04
2023-05-02T11:28:45.390Z,26.89
2023-05-02T11:29:45.426Z,27.47
2023-05-02T11:30:45.474Z,28.01
2023-05-02T11:31:45.993Z,28.20
2023-05-02T11:32:45.684Z,28.47
2023-05-02T11:33:46.039Z,28.71
2023-05-02T11:34:45.722Z,28.86
2023-05-02T11:35:45.754Z,28.95
2023-05-02T11:36:46.201Z,28.41
2023-05-02T11:37:45.815Z,28.12
2023-05-02T11:38:45.900Z,27.95
2023-05-02T11:39:45.936Z,27.59
2023-05-02T11:40:46.012Z,27.53
2023-05-02T11:41:46.089Z,27.53
2023-05-02T11:42:46.111Z,27.45
2023-05-02T11:43:46.156Z,27.38
2023-05-02T11:44:46.149Z,27.55
2023-05-02T11:45:46.211Z,27.80
2023-05-02T11:46:46.174Z,27.85
2023-05-02T11:47:46.175Z,27.37
2023-05-02T11:48:46.147Z,27.24
2023-05-02T11:49:46.115Z,27.08
2023-05-02T11:50:49.571Z,26.85
2023-05-02T11:51:46.206Z,26.93
2023-05-02T11:52:46.172Z,26.83
2023-05-02T11:53:46.088Z,26.63
2023-05-02T11:54:46.111Z,26.70
2023-05-02T11:55:46.082Z,26.81
2023-05-02T11:56:46.084Z,26.97
2023-05-02T11:57:46.112Z,26.94
2023-05-02T11:58:46.109Z,26.96
2023-05-02T11:59:46.090Z,26.89
2023-05-02T12:00:46.048Z,26.87
2023-05-02T12:01:46.077Z,26.82
2023-05-02T12:02:46.130Z,26.83
2023-05-02T12:03:46.305Z,26.87
2023-05-02T12:04:46.027Z,26.87
2023-05-02T12:05:46.038Z,26.94
2023-05-02T12:06:46.041Z,26.96
2023-05-02T12:07:46.029Z,26.89
2023-05-02T12:08:45.992Z,27.06
2023-05-02T12:09:45.978Z,27.09
2023-05-02T12:10:45.990Z,27.28
2023-05-02T12:11:45.991Z,27.27
2023-05-02T12:12:45.994Z,27.43
2023-05-02T12:13:45.974Z,27.63
2023-05-02T12:14:45.921Z,27.74
2023-05-02T12:15:45.961Z,28.00
2023-05-02T12:16:46.056Z,28.17
2023-05-02T12:17:45.995Z,28.14
2023-05-02T12:18:45.943Z,28.32
2023-05-02T12:19:45.950Z,28.52
2023-05-02T12:20:45.879Z,28.71
2023-05-02T12:21:45.914Z,28.84
2023-05-02T12:22:45.876Z,28.92
2023-05-02T12:23:45.861Z,28.81
2023-05-02T12:24:45.866Z,28.77
2023-05-02T12:25:45.877Z,28.84
2023-05-02T12:26:45.837Z,28.88
2023-05-02T12:27:45.853Z,28.88
2023-05-02T12:28:45.820Z,28.95
2023-05-02T12:29:45.863Z,29.01
2023-05-02T12:30:45.828Z,29.02
2023-05-02T12:31:45.905Z,29.09
2023-05-02T12:32:45.865Z,29.19
2023-05-02T12:33:45.838Z,29.23
2023-05-02T12:34:45.779Z,29.25
2023-05-02T12:35:45.811Z,29.19
2023-05-02T12:36:45.803Z,29.25
2023-05-02T12:37:46.841Z,31.67
2023-05-02T12:38:45.787Z,32.35
2023-05-02T12:39:45.807Z,32.21
2023-05-02T12:40:45.878Z,31.71
2023-05-02T12:41:45.752Z,32.28
2023-05-02T12:42:45.790Z,32.41
2023-05-02T12:43:45.716Z,33.62
2023-05-02T12:44:45.737Z,37.71
2023-05-02T12:45:45.725Z,36.83
2023-05-02T12:46:45.829Z,36.89
2023-05-02T12:47:45.749Z,40.20
2023-05-02T12:48:46.783Z,37.80
2023-05-02T12:49:45.690Z,37.39
2023-05-02T12:50:45.675Z,37.52
2023-05-02T12:51:45.719Z,39.45
2023-05-02T12:52:45.731Z,40.79